Time;durP1;ratioP1;P1;durP2;ratioP2;P2;SDS_P1;SDS_P2;PMS_P1;PMS_P2;Temp;Humidity;BMP_temperature;BMP_pressure;BME280_temperature;BME280_humidity;BME280_pressure;Samples;Min_cycle;Max_cycle;Signal;HPM_P1;HPM_P2
2021/03/02 00:02:13;;;;;;;4.75;3.75;;;17.50;49.20;;;;;;5014213;28;20120;-64
2021/03/02 00:04:39;;;;;;;5.93;4.32;;;17.50;49.10;;;;;;4994850;28;20037;-64
2021/03/02 00:07:04;;;;;;;5.20;4.18;;;17.50;49.00;;;;;;4982896;28;20037;-64
2021/03/02 00:09:30;;;;;;;6.70;4.53;;;17.50;48.90;;;;;;4985480;28;20091;-63
2021/03/02 00:11:55;;;;;;;5.25;4.35;;;17.50;48.90;;;;;;4995004;28;20045;-64
2021/03/02 00:14:21;;;;;;;5.88;4.03;;;17.50;48.90;;;;;;5016678;28;20034;-57
2021/03/02 00:16:55;;;;;;;7.70;4.40;;;17.50;48.90;;;;;;4999635;28;20053;-64
2021/03/02 00:19:21;;;;;;;6.80;4.78;;;17.50;48.80;;;;;;5022981;28;20138;-62
2021/03/02 00:21:48;;;;;;;5.82;4.38;;;17.50;48.70;;;;;;4994090;28;20046;-60
2021/03/02 00:24:18;;;;;;;5.35;4.22;;;17.50;48.60;;;;;;4996726;28;20064;-60
2021/03/02 00:26:47;;;;;;;6.57;4.60;;;17.50;48.60;;;;;;5015749;28;20037;-64
2021/03/02 00:29:12;;;;;;;5.07;4.25;;;17.50;48.60;;;;;;5017050;28;20029;-61
2021/03/02 00:31:38;;;;;;;5.47;4.28;;;17.50;48.60;;;;;;4999089;28;20030;-58
2021/03/02 00:34:03;;;;;;;6.22;4.78;;;17.50;48.60;;;;;;4963802;28;20088;-64
2021/03/02 00:36:29;;;;;;;6.35;4.15;;;17.60;48.60;;;;;;4983887;28;20604;-65
2021/03/02 00:38:54;;;;;;;7.15;5.13;;;17.50;48.60;;;;;;5014643;28;20025;-60
2021/03/02 00:41:20;;;;;;;7.18;4.80;;;17.50;48.60;;;;;;4996029;28;20512;-64
2021/03/02 00:43:45;;;;;;;7.03;4.80;;;17.60;48.60;;;;;;5014185;28;20052;-63
2021/03/02 00:46:11;;;;;;;5.78;4.35;;;17.50;48.50;;;;;;5021421;28;20042;-64
2021/03/02 00:48:36;;;;;;;7.35;5.10;;;17.50;48.60;;;;;;4994405;28;20705;-61
2021/03/02 00:51:02;;;;;;;6.07;4.10;;;17.50;48.70;;;;;;4997620;28;20148;-64
2021/03/02 00:53:27;;;;;;;5.20;4.10;;;17.40;48.80;;;;;;5013734;28;20092;-62
2021/03/02 00:55:53;;;;;;;7.30;4.25;;;17.40;48.80;;;;;;5011833;28;20056;-63
2021/03/02 00:58:19;;;;;;;7.10;4.45;;;17.40;48.80;;;;;;5016416;28;20063;-59
2021/03/02 01:00:44;;;;;;;6.47;4.28;;;17.40;48.80;;;;;;5015920;28;20088;-63
2021/03/02 01:03:10;;;;;;;7.03;4.40;;;17.40;48.80;;;;;;5014777;28;20034;-63
2021/03/02 01:05:36;;;;;;;4.63;4.07;;;17.40;48.90;;;;;;4997928;28;20509;-61
2021/03/02 01:08:01;;;;;;;6.40;3.97;;;17.30;49.00;;;;;;5015882;28;20072;-61
2021/03/02 01:10:27;;;;;;;4.85;4.05;;;17.30;49.00;;;;;;5015158;28;20026;-61
2021/03/02 01:12:52;;;;;;;6.32;4.35;;;17.30;49.00;;;;;;5014206;28;20436;-64
2021/03/02 01:15:18;;;;;;;5.60;4.30;;;17.30;49.10;;;;;;5016288;28;20062;-61
2021/03/02 01:17:43;;;;;;;3.97;3.53;;;17.30;49.00;;;;;;5015431;28;20113;-61
2021/03/02 01:20:09;;;;;;;4.82;3.80;;;17.30;49.10;;;;;;5008566;28;20030;-65
2021/03/02 01:22:35;;;;;;;5.40;4.07;;;17.30;49.00;;;;;;5044614;28;20548;-65
2021/03/02 01:25:00;;;;;;;5.88;4.03;;;17.30;49.00;;;;;;5035186;28;20032;-64
2021/03/02 01:27:26;;;;;;;5.13;4.32;;;17.30;49.00;;;;;;5012711;28;20440;-63
2021/03/02 01:29:51;;;;;;;5.90;4.35;;;17.30;49.00;;;;;;4991951;28;20557;-64
2021/03/02 01:32:17;;;;;;;5.15;3.90;;;17.30;48.90;;;;;;5013351;28;20033;-62
2021/03/02 01:34:42;;;;;;;5.25;3.90;;;17.40;48.90;;;;;;5034128;28;20029;-61
2021/03/02 01:37:07;;;;;;;6.45;4.18;;;17.40;48.90;;;;;;5030813;28;20032;-64
2021/03/02 01:39:33;;;;;;;4.47;3.67;;;17.40;48.80;;;;;;5014028;28;20033;-62
2021/03/02 01:41:59;;;;;;;7.30;3.55;;;17.30;48.80;;;;;;5012831;28;20044;-63
2021/03/02 01:44:28;;;;;;;5.28;3.92;;;17.40;48.70;;;;;;5017776;28;20033;-64
2021/03/02 01:46:53;;;;;;;6.63;4.35;;;17.40;48.70;;;;;;5015689;28;20091;-64
2021/03/02 01:49:19;;;;;;;5.13;3.90;;;17.40;48.70;;;;;;5009609;28;20041;-60
2021/03/02 01:51:44;;;;;;;5.35;4.10;;;17.40;48.70;;;;;;5012375;28;20049;-64
2021/03/02 01:54:11;;;;;;;4.93;4.18;;;17.40;48.60;;;;;;5013942;28;20141;-64
2021/03/02 01:56:36;;;;;;;5.03;4.28;;;17.40;48.50;;;;;;5014718;28;20037;-60
2021/03/02 01:59:02;;;;;;;5.07;4.28;;;17.40;48.50;;;;;;5014116;28;20034;-65
2021/03/02 02:01:28;;;;;;;4.95;3.80;;;17.40;48.50;;;;;;5010893;28;20041;-64
2021/03/02 02:03:56;;;;;;;4.57;3.85;;;17.40;48.40;;;;;;5013190;28;20038;-64
2021/03/02 02:06:33;;;;;;;5.85;4.38;;;17.40;48.30;;;;;;5002325;28;20103;-62
2021/03/02 02:09:31;;;;;;;4.97;3.67;;;17.40;48.30;;;;;;5022998;28;20112;-60
2021/03/02 02:12:22;;;;;;;6.03;4.13;;;17.40;48.40;;;;;;5014202;28;20037;-64
2021/03/02 02:14:51;;;;;;;5.10;3.78;;;17.40;48.30;;;;;;5031161;28;20091;-65
2021/03/02 02:17:23;;;;;;;4.95;3.80;;;17.40;48.30;;;;;;5014615;28;20061;-65
2021/03/02 02:19:50;;;;;;;5.65;3.80;;;17.40;48.30;;;;;;5017515;28;20585;-64
2021/03/02 02:22:39;;;;;;;4.53;3.45;;;17.30;48.30;;;;;;5024825;28;20091;-64
2021/03/02 02:25:18;;;;;;;5.22;3.78;;;17.30;48.40;;;;;;5015312;28;20052;-64
2021/03/02 02:27:44;;;;;;;4.90;3.95;;;17.30;48.40;;;;;;5017128;28;20033;-62
2021/03/02 02:30:10;;;;;;;5.68;3.95;;;17.30;48.40;;;;;;4991691;28;20038;-64
2021/03/02 02:32:36;;;;;;;4.43;3.80;;;17.30;48.50;;;;;;5001024;28;20943;-61
2021/03/02 02:35:02;;;;;;;4.07;3.33;;;17.30;48.40;;;;;;5035164;28;20040;-62
2021/03/02 02:37:29;;;;;;;5.72;4.47;;;17.30;48.40;;;;;;5032799;28;20521;-64
2021/03/02 02:39:54;;;;;;;5.80;4.18;;;17.30;48.40;;;;;;5006685;28;20033;-64
2021/03/02 02:42:20;;;;;;;4.03;3.42;;;17.30;48.30;;;;;;5023921;28;20026;-59
2021/03/02 02:44:46;;;;;;;5.30;3.83;;;17.30;48.30;;;;;;5002366;28;20120;-65
2021/03/02 02:47:11;;;;;;;5.15;3.67;;;17.30;48.30;;;;;;5007550;28;21659;-65
2021/03/02 02:49:37;;;;;;;4.78;3.67;;;17.30;48.30;;;;;;5026350;28;20112;-58
2021/03/02 02:52:02;;;;;;;5.72;4.47;;;17.30;48.30;;;;;;5009610;28;20025;-61
2021/03/02 02:54:28;;;;;;;4.60;3.90;;;17.30;48.30;;;;;;5023995;28;20044;-63
2021/03/02 02:56:53;;;;;;;3.90;3.35;;;17.30;48.30;;;;;;5031625;28;20029;-63
2021/03/02 02:59:24;;;;;;;5.63;3.63;;;17.30;48.20;;;;;;5020476;28;20026;-63
2021/03/02 03:02:00;;;;;;;4.47;4.00;;;17.30;48.20;;;;;;5024660;28;20512;-62
2021/03/02 03:04:29;;;;;;;5.00;3.90;;;17.30;48.20;;;;;;5016997;28;20034;-63
2021/03/02 03:06:56;;;;;;;4.80;3.70;;;17.30;48.50;;;;;;5018664;28;20037;-64
2021/03/02 03:09:21;;;;;;;4.18;3.60;;;17.30;48.20;;;;;;5016779;28;20029;-65
2021/03/02 03:11:59;;;;;;;4.13;3.70;;;17.30;48.20;;;;;;5016979;28;20044;-65
2021/03/02 03:14:24;;;;;;;4.97;4.10;;;17.30;48.20;;;;;;5015384;28;20037;-65
2021/03/02 03:16:50;;;;;;;5.60;3.47;;;17.30;48.20;;;;;;5013476;28;20044;-59
2021/03/02 03:19:21;;;;;;;5.32;3.50;;;17.30;48.20;;;;;;5013975;28;20040;-63
2021/03/02 03:21:46;;;;;;;5.57;3.40;;;17.30;48.20;;;;;;5001406;28;20812;-65
2021/03/02 03:24:12;;;;;;;4.05;3.25;;;17.30;48.20;;;;;;5015474;28;20156;-65
2021/03/02 03:26:37;;;;;;;7.75;3.55;;;17.30;48.20;;;;;;5017218;28;20036;-63
2021/03/02 03:29:03;;;;;;;4.45;4.03;;;17.30;48.20;;;;;;4998919;28;20549;-60
2021/03/02 03:31:28;;;;;;;4.32;3.53;;;17.30;48.30;;;;;;5009546;28;20044;-63
2021/03/02 03:33:54;;;;;;;5.55;3.60;;;17.30;48.30;;;;;;5032957;28;20037;-61
2021/03/02 03:36:19;;;;;;;6.22;3.40;;;17.30;48.30;;;;;;5014524;28;20104;-65
2021/03/02 03:38:45;;;;;;;4.20;3.30;;;17.30;48.30;;;;;;5003918;28;20384;-65
2021/03/02 03:41:11;;;;;;;4.28;3.47;;;17.30;48.30;;;;;;5016410;28;20042;-61
2021/03/02 03:43:37;;;;;;;4.70;3.85;;;17.30;48.30;;;;;;5039431;28;20056;-60
2021/03/02 03:46:02;;;;;;;4.63;3.60;;;17.30;48.30;;;;;;5037521;28;20032;-62
2021/03/02 03:48:28;;;;;;;6.30;3.88;;;17.30;48.30;;;;;;5034501;28;20037;-65
2021/03/02 03:50:53;;;;;;;6.35;3.80;;;17.30;48.30;;;;;;5034861;28;20045;-64
2021/03/02 03:53:20;;;;;;;5.93;3.90;;;17.30;48.30;;;;;;5017810;28;20036;-62
2021/03/02 03:55:46;;;;;;;4.18;3.50;;;17.30;48.20;;;;;;5017745;28;20045;-64
2021/03/02 03:58:15;;;;;;;5.30;3.88;;;17.30;48.20;;;;;;5015374;28;20039;-62
2021/03/02 04:00:41;;;;;;;5.63;3.45;;;17.30;48.20;;;;;;5037489;28;20562;-64
2021/03/02 04:03:06;;;;;;;6.07;3.95;;;17.30;48.30;;;;;;5018277;28;20038;-65
2021/03/02 04:05:32;;;;;;;5.50;3.67;;;17.30;48.20;;;;;;5001212;28;20044;-65
2021/03/02 04:07:58;;;;;;;5.68;3.85;;;17.30;48.20;;;;;;5033945;28;20762;-58
2021/03/02 04:10:23;;;;;;;5.95;3.60;;;17.30;48.20;;;;;;5016710;28;20113;-63
2021/03/02 04:12:49;;;;;;;5.05;3.83;;;17.30;48.10;;;;;;5004560;28;20143;-65
2021/03/02 04:15:15;;;;;;;3.72;3.38;;;17.30;48.10;;;;;;5033971;28;20037;-58
2021/03/02 04:17:51;;;;;;;5.18;4.20;;;17.30;48.00;;;;;;5033750;28;20103;-60
2021/03/02 04:20:17;;;;;;;4.28;3.17;;;17.30;48.00;;;;;;5041962;28;20037;-63
2021/03/02 04:22:42;;;;;;;3.95;3.25;;;17.30;47.90;;;;;;5034209;28;20033;-60
2021/03/02 04:25:08;;;;;;;4.93;3.60;;;17.40;48.00;;;;;;5011607;28;20026;-62
2021/03/02 04:27:34;;;;;;;4.32;3.75;;;17.30;47.90;;;;;;5035621;28;20463;-59
2021/03/02 04:29:59;;;;;;;4.18;3.45;;;17.40;47.80;;;;;;5024520;28;20029;-60
2021/03/02 04:32:25;;;;;;;4.35;3.42;;;17.40;47.80;;;;;;5040562;28;20126;-64
2021/03/02 04:34:50;;;;;;;3.22;2.88;;;17.40;47.70;;;;;;5037073;28;20858;-65
2021/03/02 04:37:16;;;;;;;5.28;3.40;;;17.40;47.60;;;;;;5019034;28;20147;-65
2021/03/02 04:39:41;;;;;;;5.45;3.50;;;17.40;47.60;;;;;;5036233;28;20119;-62
2021/03/02 04:42:07;;;;;;;5.53;4.20;;;17.40;47.50;;;;;;5036349;28;20198;-61
2021/03/02 04:44:32;;;;;;;4.75;3.47;;;17.40;47.50;;;;;;5029415;28;20079;-61
2021/03/02 04:46:58;;;;;;;4.78;3.60;;;17.40;47.50;;;;;;5039201;28;20120;-64
2021/03/02 04:49:24;;;;;;;4.40;3.65;;;17.40;47.50;;;;;;5033617;28;20090;-64
2021/03/02 04:51:49;;;;;;;3.92;3.30;;;17.40;47.40;;;;;;5029340;28;20403;-62
2021/03/02 04:54:15;;;;;;;4.80;2.83;;;17.40;47.60;;;;;;5017070;28;20037;-63
2021/03/02 04:56:40;;;;;;;4.60;3.65;;;17.40;47.50;;;;;;5033827;28;20029;-62
2021/03/02 04:59:06;;;;;;;3.83;3.20;;;17.40;47.60;;;;;;5035170;28;20029;-64
2021/03/02 05:01:33;;;;;;;5.15;3.45;;;17.30;47.50;;;;;;5042547;28;20822;-63
2021/03/02 05:03:58;;;;;;;4.00;3.58;;;17.30;47.60;;;;;;5014059;28;20661;-57
2021/03/02 05:06:24;;;;;;;4.57;3.72;;;17.30;47.60;;;;;;5017068;28;20031;-63
2021/03/02 05:08:50;;;;;;;3.97;3.58;;;17.30;47.60;;;;;;5047996;28;20103;-63
2021/03/02 05:11:15;;;;;;;4.78;3.50;;;17.30;47.60;;;;;;5030106;28;20523;-62
2021/03/02 05:13:41;;;;;;;5.68;3.55;;;17.20;47.60;;;;;;5039711;28;20059;-58
2021/03/02 05:16:08;;;;;;;3.30;2.90;;;17.20;47.60;;;;;;5033448;28;20029;-62
2021/03/02 05:18:34;;;;;;;4.88;3.60;;;17.20;47.50;;;;;;5022798;28;20031;-64
2021/03/02 05:20:59;;;;;;;4.95;3.30;;;17.30;47.60;;;;;;5033178;28;20041;-68
2021/03/02 05:23:25;;;;;;;3.85;3.30;;;17.30;47.60;;;;;;5027157;28;20756;-65
2021/03/02 05:25:50;;;;;;;4.07;3.30;;;17.30;47.60;;;;;;5034176;28;20044;-63
2021/03/02 05:28:16;;;;;;;6.10;3.90;;;17.30;47.50;;;;;;5030095;28;20029;-61
2021/03/02 05:30:41;;;;;;;4.15;3.38;;;17.30;47.50;;;;;;5036135;28;20499;-63
2021/03/02 05:33:07;;;;;;;4.03;3.28;;;17.30;47.60;;;;;;5035933;28;20037;-63
2021/03/02 05:35:32;;;;;;;3.60;2.78;;;17.30;47.60;;;;;;5036042;28;20094;-64
2021/03/02 05:37:58;;;;;;;4.45;3.28;;;17.20;47.60;;;;;;5034525;28;20066;-64
2021/03/02 05:40:23;;;;;;;4.72;2.88;;;17.30;47.70;;;;;;5028000;28;20122;-63
2021/03/02 05:42:49;;;;;;;4.65;3.28;;;17.30;47.70;;;;;;5035931;28;20514;-64
2021/03/02 05:45:15;;;;;;;5.95;3.58;;;17.30;47.70;;;;;;5034171;28;20037;-54
2021/03/02 05:47:40;;;;;;;5.15;3.72;;;17.20;48.20;;;;;;5000890;28;20073;-63
2021/03/02 05:50:06;;;;;;;6.40;3.70;;;17.10;48.60;;;;;;5034063;28;20064;-62
2021/03/02 05:52:32;;;;;;;9.38;3.80;;;17.20;48.90;;;;;;5017696;28;20052;-62
2021/03/02 05:54:59;;;;;;;10.07;3.63;;;17.20;49.10;;;;;;5024586;28;20028;-60
2021/03/02 05:57:24;;;;;;;5.50;3.55;;;17.10;49.10;;;;;;5001387;28;20041;-63
2021/03/02 05:59:51;;;;;;;9.68;4.20;;;17.10;49.20;;;;;;5000566;28;20052;-60
2021/03/02 06:02:16;;;;;;;6.82;3.75;;;17.10;49.30;;;;;;5040351;28;20090;-60
2021/03/02 06:04:42;;;;;;;10.52;4.05;;;17.10;49.30;;;;;;5032429;28;20049;-61
2021/03/02 06:07:07;;;;;;;9.68;4.30;;;17.10;49.30;;;;;;5032377;28;20033;-62
2021/03/02 06:09:33;;;;;;;8.48;3.78;;;17.10;49.30;;;;;;5036912;28;20822;-62
2021/03/02 06:12:02;;;;;;;7.28;4.38;;;17.10;49.30;;;;;;5035901;28;20025;-63
2021/03/02 06:14:30;;;;;;;9.40;3.45;;;17.10;49.20;;;;;;5032108;28;20045;-64
2021/03/02 06:16:56;;;;;;;7.43;3.95;;;17.10;49.20;;;;;;5030472;28;20439;-61
2021/03/02 06:19:43;;;;;;;5.22;3.33;;;17.10;49.20;;;;;;5034177;28;20029;-63
2021/03/02 06:22:46;;;;;;;5.82;3.55;;;17.10;49.20;;;;;;5032954;28;20032;-63
2021/03/02 06:25:38;;;;;;;5.43;3.20;;;17.10;49.40;;;;;;5033878;28;20077;-65
2021/03/02 06:28:04;;;;;;;7.20;3.65;;;17.10;49.80;;;;;;5041461;28;20368;-64
2021/03/02 06:30:30;;;;;;;5.80;3.00;;;17.20;50.00;;;;;;5045117;28;20094;-64
2021/03/02 06:32:56;;;;;;;7.00;3.85;;;17.10;49.80;;;;;;5063636;28;20028;-62
2021/03/02 06:35:32;;;;;;;11.00;3.35;;;17.20;49.70;;;;;;5063310;28;20403;-64
2021/03/02 06:37:58;;;;;;;5.25;3.22;;;17.20;49.90;;;;;;5031408;28;20734;-64
2021/03/02 06:40:45;;;;;;;9.82;3.78;;;17.20;49.90;;;;;;5024842;28;20045;-64
2021/03/02 06:43:35;;;;;;;8.35;3.83;;;17.20;49.90;;;;;;5024946;28;20032;-64
2021/03/02 06:46:05;;;;;;;5.90;3.22;;;17.20;49.90;;;;;;5043207;28;20032;-57
2021/03/02 06:48:32;;;;;;;6.20;3.35;;;17.20;49.90;;;;;;5022975;28;20496;-64
2021/03/02 06:50:58;;;;;;;5.45;2.90;;;17.30;49.90;;;;;;5022600;28;20034;-64
2021/03/02 06:53:23;;;;;;;6.68;2.92;;;17.30;49.90;;;;;;4990412;28;20739;-63
2021/03/02 06:55:49;;;;;;;3.58;2.80;;;17.30;49.80;;;;;;5024712;28;20033;-64
2021/03/02 06:58:25;;;;;;;5.95;3.58;;;17.20;49.70;;;;;;5023904;28;20500;-59
2021/03/02 07:00:54;;;;;;;7.95;3.38;;;17.30;49.60;;;;;;5024198;28;20124;-62
2021/03/02 07:03:24;;;;;;;5.88;3.45;;;17.30;49.30;;;;;;5022574;28;20109;-64
2021/03/02 07:05:50;;;;;;;7.40;3.35;;;17.40;49.10;;;;;;5023650;28;20538;-64
2021/03/02 07:08:15;;;;;;;5.78;3.10;;;17.40;49.50;;;;;;5024683;28;20034;-63
2021/03/02 07:10:42;;;;;;;11.65;2.92;;;17.40;50.00;;;;;;5025119;28;20512;-62
2021/03/02 07:13:11;;;;;;;7.75;3.78;;;17.30;50.50;;;;;;5028446;28;20033;-63
2021/03/02 07:15:41;;;;;;;8.13;3.35;;;17.30;50.30;;;;;;5010797;28;20041;-61
2021/03/02 07:18:08;;;;;;;5.78;3.20;;;17.30;49.70;;;;;;4993915;28;20144;-65
2021/03/02 07:20:34;;;;;;;6.22;3.55;;;17.40;49.60;;;;;;5010940;28;20037;-64
2021/03/02 07:23:00;;;;;;;10.73;4.65;;;17.30;49.50;;;;;;4994493;28;20091;-64
2021/03/02 07:25:25;;;;;;;7.55;4.05;;;17.40;49.50;;;;;;5028720;28;20037;-64
2021/03/02 07:27:55;;;;;;;6.70;3.60;;;17.40;49.40;;;;;;4993422;28;20488;-60
2021/03/02 07:30:21;;;;;;;8.57;3.45;;;17.40;49.50;;;;;;4993689;28;20034;-64
2021/03/02 07:32:46;;;;;;;6.45;4.00;;;17.40;49.40;;;;;;5025987;28;20103;-63
2021/03/02 07:35:19;;;;;;;6.50;3.78;;;17.40;49.50;;;;;;5009259;28;20592;-65
2021/03/02 07:37:45;;;;;;;9.38;4.43;;;17.40;49.30;;;;;;5009818;28;20582;-64
2021/03/02 07:40:14;;;;;;;7.03;3.90;;;17.40;49.20;;;;;;5009654;28;20053;-65
2021/03/02 07:42:40;;;;;;;8.82;3.88;;;17.40;49.10;;;;;;5026969;28;20025;-65
2021/03/02 07:45:16;;;;;;;10.60;4.35;;;17.40;49.80;;;;;;5009883;28;20025;-64
2021/03/02 07:47:49;;;;;;;7.68;4.22;;;17.40;49.10;;;;;;5026838;28;20037;-63
2021/03/02 07:50:18;;;;;;;9.07;4.05;;;17.40;49.10;;;;;;5026903;28;20404;-64
2021/03/02 07:52:44;;;;;;;8.23;4.60;;;17.40;49.00;;;;;;5027141;28;20389;-62
2021/03/02 07:55:18;;;;;;;15.85;4.72;;;17.40;49.00;;;;;;5010161;28;20036;-65
2021/03/02 07:57:43;;;;;;;10.57;4.45;;;17.40;49.10;;;;;;5026165;28;20631;-66
2021/03/02 08:00:15;;;;;;;12.75;5.13;;;17.40;49.00;;;;;;4991461;28;20113;-64
2021/03/02 08:02:40;;;;;;;8.90;5.13;;;17.40;49.00;;;;;;5027219;28;20027;-60
2021/03/02 08:05:27;;;;;;;8.70;4.75;;;17.40;49.60;;;;;;5026123;28;20581;-64
2021/03/02 08:08:23;;;;;;;8.70;5.07;;;17.50;48.60;;;;;;5026632;28;20026;-65
2021/03/02 08:11:00;;;;;;;9.95;5.03;;;17.40;48.50;;;;;;5026530;28;20033;-64
2021/03/02 08:13:37;;;;;;;11.10;4.78;;;17.40;48.60;;;;;;5026811;28;20021;-65
2021/03/02 08:16:07;;;;;;;12.73;4.68;;;17.40;48.50;;;;;;5026970;28;20105;-61
2021/03/02 08:18:34;;;;;;;12.57;4.80;;;17.40;48.70;;;;;;5025331;28;20041;-65
2021/03/02 08:21:19;;;;;;;9.43;5.18;;;17.40;48.70;;;;;;5026324;28;20034;-65
2021/03/02 08:23:50;;;;;;;7.65;4.25;;;17.40;48.70;;;;;;5025672;28;20080;-65
2021/03/02 08:26:20;;;;;;;6.55;4.53;;;17.40;48.70;;;;;;5026779;28;20036;-64
2021/03/02 08:29:05;;;;;;;9.48;5.05;;;17.40;48.80;;;;;;5026132;28;20072;-65
2021/03/02 08:31:30;;;;;;;8.88;4.63;;;17.30;48.90;;;;;;5026450;28;20080;-63
2021/03/02 08:33:58;;;;;;;10.23;4.93;;;17.30;48.90;;;;;;5024985;28;20038;-65
2021/03/02 08:36:23;;;;;;;11.40;4.90;;;17.30;49.00;;;;;;5007167;28;20114;-65
2021/03/02 08:38:49;;;;;;;10.13;4.85;;;17.30;49.10;;;;;;5025746;28;20228;-64
2021/03/02 08:41:27;;;;;;;10.23;4.72;;;17.30;49.10;;;;;;5025522;28;20546;-65
2021/03/02 08:43:52;;;;;;;10.00;5.63;;;17.40;49.20;;;;;;5008232;28;20721;-62
2021/03/02 08:46:23;;;;;;;14.85;5.57;;;17.30;49.20;;;;;;5008284;28;20051;-64
2021/03/02 08:48:49;;;;;;;10.52;5.57;;;17.30;49.30;;;;;;5024063;28;20455;-66
2021/03/02 08:51:18;;;;;;;13.57;5.18;;;17.30;49.30;;;;;;5025934;28;20037;-66
2021/03/02 08:53:48;;;;;;;11.05;4.80;;;17.30;49.30;;;;;;5026056;28;20620;-64
2021/03/02 08:56:23;;;;;;;8.57;4.75;;;17.30;49.40;;;;;;5026029;28;20064;-65
2021/03/02 08:58:53;;;;;;;10.45;4.80;;;17.30;49.40;;;;;;5026101;28;20503;-64
2021/03/02 09:01:22;;;;;;;11.57;5.60;;;17.30;49.50;;;;;;5025785;28;20052;-61
2021/03/02 09:03:47;;;;;;;10.75;4.60;;;17.30;49.50;;;;;;5024797;28;20029;-63
2021/03/02 09:06:25;;;;;;;9.18;4.43;;;17.30;49.50;;;;;;4992186;28;20038;-62
2021/03/02 09:09:08;;;;;;;9.82;4.80;;;17.30;49.50;;;;;;5025293;28;20044;-66
2021/03/02 09:11:44;;;;;;;8.68;4.72;;;17.30;49.60;;;;;;5025090;28;20029;-66
2021/03/02 09:14:21;;;;;;;11.75;5.43;;;17.30;49.60;;;;;;5008270;28;20030;-65
2021/03/02 09:16:46;;;;;;;10.18;4.85;;;17.30;49.70;;;;;;5044265;28;20044;-65
2021/03/02 09:19:23;;;;;;;9.15;4.75;;;17.30;49.70;;;;;;5044363;28;20083;-61
2021/03/02 09:22:05;;;;;;;8.95;4.60;;;17.30;49.70;;;;;;5045259;28;20127;-65
2021/03/02 09:24:32;;;;;;;8.77;4.53;;;17.30;49.70;;;;;;5045487;28;20909;-60
2021/03/02 09:27:14;;;;;;;8.18;4.70;;;17.30;49.70;;;;;;5027101;28;20037;-64
2021/03/02 09:29:47;;;;;;;7.95;4.72;;;17.30;49.70;;;;;;5027942;28;20119;-65
2021/03/02 09:32:21;;;;;;;10.38;5.30;;;17.40;49.60;;;;;;5024745;28;20067;-64
2021/03/02 09:34:47;;;;;;;9.35;4.70;;;17.40;49.60;;;;;;4976328;28;20036;-66
2021/03/02 09:37:16;;;;;;;8.77;4.72;;;17.40;49.60;;;;;;5043922;28;21406;-66
2021/03/02 09:40:09;;;;;;;7.43;4.40;;;17.40;49.60;;;;;;5044574;28;20541;-65
2021/03/02 09:42:36;;;;;;;7.93;3.72;;;17.40;49.50;;;;;;5035692;28;20548;-61
2021/03/02 09:45:16;;;;;;;6.35;4.53;;;17.40;50.10;;;;;;5044078;28;20841;-61
2021/03/02 09:47:42;;;;;;;8.85;4.25;;;17.40;49.40;;;;;;5044432;28;20074;-65
2021/03/02 09:50:17;;;;;;;6.75;4.60;;;17.50;49.40;;;;;;5044267;28;20048;-65
2021/03/02 09:52:52;;;;;;;8.50;4.07;;;17.50;49.30;;;;;;5010726;28;20040;-64
2021/03/02 09:55:17;;;;;;;;;;;17.50;49.20;;;;;;5041570;28;20021;-65
2021/03/02 09:58:12;;;;;;;6.10;4.50;;;17.50;49.20;;;;;;5044172;28;19925;-61
2021/03/02 10:00:57;;;;;;;7.70;4.35;;;17.50;49.30;;;;;;5043844;28;20495;-63
2021/03/02 10:03:23;;;;;;;5.90;3.92;;;17.50;49.90;;;;;;5042787;28;20024;-65
2021/03/02 10:05:52;;;;;;;6.30;4.50;;;17.50;49.20;;;;;;5044942;28;20136;-65
2021/03/02 10:08:27;;;;;;;7.22;4.38;;;17.50;49.20;;;;;;5044258;28;20020;-62
2021/03/02 10:11:13;;;;;;;6.57;3.90;;;17.60;49.10;;;;;;5043706;28;20053;-65
2021/03/02 10:13:39;;;;;;;8.48;4.15;;;17.60;49.00;;;;;;5029651;28;20377;-60
2021/03/02 10:16:20;;;;;;;7.65;4.55;;;17.60;48.90;;;;;;5044129;28;20439;-65
2021/03/02 10:18:46;;;;;;;7.10;4.50;;;17.60;48.80;;;;;;5043370;28;20033;-63
2021/03/02 10:21:12;;;;;;;6.53;3.72;;;17.70;48.90;;;;;;5044189;28;20036;-66
2021/03/02 10:23:41;;;;;;;6.78;4.00;;;17.70;48.90;;;;;;5025958;28;20037;-62
2021/03/02 10:26:07;;;;;;;4.45;3.80;;;17.70;48.80;;;;;;5044281;28;20128;-62
2021/03/02 10:28:33;;;;;;;6.18;3.92;;;17.70;48.90;;;;;;5025373;28;20456;-64
2021/03/02 10:30:59;;;;;;;5.57;4.07;;;17.60;48.80;;;;;;5043871;28;20037;-61
2021/03/02 10:33:24;;;;;;;5.53;3.90;;;17.60;48.80;;;;;;5024933;28;20102;-64
2021/03/02 10:35:50;;;;;;;6.13;3.97;;;17.60;48.80;;;;;;4993527;28;20029;-66
2021/03/02 10:38:15;;;;;;;5.53;4.03;;;17.70;48.80;;;;;;5043097;28;20033;-65
2021/03/02 10:40:41;;;;;;;6.63;4.30;;;17.70;48.80;;;;;;5043614;28;20033;-64
2021/03/02 10:43:06;;;;;;;4.13;3.38;;;17.70;48.90;;;;;;5025855;28;20025;-64
2021/03/02 10:45:32;;;;;;;5.60;3.85;;;17.60;48.90;;;;;;5045356;28;20040;-65
2021/03/02 10:47:57;;;;;;;4.22;3.60;;;17.60;48.80;;;;;;5048896;28;20029;-64
2021/03/02 10:50:23;;;;;;;4.93;3.53;;;17.60;48.80;;;;;;5050950;28;20095;-65
2021/03/02 10:52:48;;;;;;;4.68;3.80;;;17.70;49.00;;;;;;5049999;28;20036;-66
2021/03/02 10:55:14;;;;;;;5.35;3.75;;;17.70;48.90;;;;;;5050642;28;20903;-64
2021/03/02 10:57:39;;;;;;;5.32;3.20;;;17.70;48.90;;;;;;5049658;28;20029;-64
2021/03/02 11:00:05;;;;;;;6.07;3.20;;;17.70;48.90;;;;;;5050522;28;20025;-64
2021/03/02 11:02:31;;;;;;;6.07;3.65;;;17.70;48.90;;;;;;5050399;28;20495;-64
2021/03/02 11:04:56;;;;;;;5.68;3.85;;;17.70;48.90;;;;;;5050480;28;20029;-61
2021/03/02 11:07:22;;;;;;;4.95;3.35;;;17.70;49.00;;;;;;5050787;28;20055;-65
2021/03/02 11:09:49;;;;;;;3.75;3.28;;;17.60;49.00;;;;;;5032902;28;20017;-64
2021/03/02 11:12:14;;;;;;;3.88;3.20;;;17.60;49.00;;;;;;5050123;28;20051;-64
2021/03/02 11:14:40;;;;;;;4.78;3.40;;;17.60;49.10;;;;;;5050694;28;20453;-62
2021/03/02 11:17:07;;;;;;;3.95;3.10;;;17.60;49.00;;;;;;5050240;28;20499;-65
2021/03/02 11:19:32;;;;;;;3.75;3.00;;;17.60;49.20;;;;;;5031841;28;20022;-66
2021/03/02 11:21:58;;;;;;;3.28;2.80;;;17.60;49.20;;;;;;5050121;28;20043;-64
2021/03/02 11:24:24;;;;;;;4.03;3.28;;;17.60;49.20;;;;;;5050460;28;20037;-64
2021/03/02 11:26:50;;;;;;;4.03;3.53;;;17.60;49.20;;;;;;5049291;28;20033;-66
2021/03/02 11:29:15;;;;;;;4.90;3.28;;;17.60;49.20;;;;;;5050324;28;20128;-64
2021/03/02 11:31:41;;;;;;;4.15;3.25;;;17.60;49.20;;;;;;5049850;28;20069;-66
2021/03/02 11:34:06;;;;;;;4.72;3.20;;;17.60;49.30;;;;;;5048898;28;20544;-62
2021/03/02 11:36:31;;;;;;;4.70;3.53;;;17.60;49.30;;;;;;5049887;28;20037;-64
2021/03/02 11:38:57;;;;;;;6.18;3.50;;;17.60;49.20;;;;;;5050529;28;20036;-61
2021/03/02 11:41:23;;;;;;;5.78;3.30;;;17.60;49.30;;;;;;5049496;28;20500;-63
2021/03/02 11:43:48;;;;;;;4.93;3.08;;;17.60;49.40;;;;;;5049944;28;20102;-63
2021/03/02 11:46:14;;;;;;;4.35;3.05;;;17.60;49.30;;;;;;5050181;28;20029;-60
2021/03/02 11:48:39;;;;;;;5.07;3.20;;;17.60;49.20;;;;;;5049580;28;20025;-65
2021/03/02 11:51:05;;;;;;;3.97;2.75;;;17.60;49.20;;;;;;5049902;28;20037;-65
2021/03/02 11:53:30;;;;;;;3.90;3.13;;;17.60;49.30;;;;;;5015965;28;20090;-65
2021/03/02 11:55:56;;;;;;;3.65;2.88;;;17.60;49.30;;;;;;5050027;28;20033;-65
2021/03/02 11:58:21;;;;;;;4.28;3.30;;;17.60;49.20;;;;;;5046065;28;20032;-65
2021/03/02 12:00:47;;;;;;;4.70;2.85;;;17.60;49.20;;;;;;5045841;28;20507;-64
2021/03/02 12:03:13;;;;;;;3.97;2.65;;;17.60;49.20;;;;;;5045290;28;20391;-64
2021/03/02 12:05:38;;;;;;;4.35;3.08;;;17.60;49.30;;;;;;5046593;28;20044;-65
2021/03/02 12:08:04;;;;;;;3.58;2.63;;;17.60;49.40;;;;;;5028382;28;20033;-64
2021/03/02 12:10:30;;;;;;;5.30;3.03;;;17.60;49.40;;;;;;5047171;28;20108;-62
2021/03/02 12:12:55;;;;;;;4.07;3.17;;;17.60;49.20;;;;;;5046325;28;20029;-61
2021/03/02 12:15:21;;;;;;;4.40;3.38;;;17.60;49.40;;;;;;5045962;28;20055;-65
2021/03/02 12:17:46;;;;;;;3.67;3.00;;;17.50;49.30;;;;;;5026892;28;20546;-64
2021/03/02 12:20:12;;;;;;;4.28;2.85;;;17.50;49.40;;;;;;5046397;28;20028;-64
2021/03/02 12:22:38;;;;;;;4.07;2.67;;;17.50;49.60;;;;;;5046375;28;20102;-65
2021/03/02 12:25:04;;;;;;;4.18;3.60;;;17.50;49.80;;;;;;5045051;28;20063;-65
2021/03/02 12:27:30;;;;;;;4.20;2.92;;;17.50;49.90;;;;;;5046067;28;20052;-64
2021/03/02 12:29:55;;;;;;;4.90;3.25;;;17.40;49.90;;;;;;5046041;28;20044;-63
2021/03/02 12:32:21;;;;;;;3.80;2.97;;;17.40;49.80;;;;;;5046323;28;20013;-62
2021/03/02 12:34:46;;;;;;;3.28;2.78;;;17.40;49.80;;;;;;5045430;28;20025;-64
2021/03/02 12:37:12;;;;;;;3.97;2.63;;;17.40;50.00;;;;;;5046053;28;20083;-61
2021/03/02 12:39:37;;;;;;;3.88;3.08;;;17.40;49.90;;;;;;5045917;28;20045;-63
2021/03/02 12:42:03;;;;;;;3.67;2.42;;;17.40;50.00;;;;;;5045868;28;20036;-64
2021/03/02 12:44:28;;;;;;;7.93;2.50;;;17.40;49.90;;;;;;5046499;28;20472;-63
2021/03/02 12:46:54;;;;;;;4.80;3.10;;;17.40;49.80;;;;;;5045490;28;20025;-65
2021/03/02 12:49:19;;;;;;;3.92;3.42;;;17.40;49.90;;;;;;5044475;28;20552;-65
2021/03/02 12:51:45;;;;;;;3.75;3.03;;;17.40;49.90;;;;;;5045038;28;20128;-65